createdAt,value
2023-04-26T00:00:10.241Z,5.95
2023-04-26T00:02:40.212Z,5.98
2023-04-26T00:05:11.655Z,5.88
2023-04-26T00:07:40.316Z,5.89
2023-04-26T00:10:10.645Z,6.00
2023-04-26T00:12:41.262Z,5.77
2023-04-26T00:15:11.037Z,5.76
2023-04-26T00:17:39.859Z,5.87
2023-04-26T00:20:13.027Z,5.80
2023-04-26T00:22:41.814Z,5.63
2023-04-26T00:25:11.491Z,5.93
2023-04-26T00:27:40.332Z,5.85
2023-04-26T00:30:11.296Z,5.96
2023-04-26T00:32:40.311Z,5.87
2023-04-26T00:35:11.896Z,5.84
2023-04-26T00:37:40.443Z,5.83
2023-04-26T00:40:10.523Z,5.75
2023-04-26T00:42:39.576Z,6.00
2023-04-26T00:45:09.491Z,5.81
2023-04-26T00:47:38.601Z,5.56
2023-04-26T00:50:10.710Z,5.55
2023-04-26T00:52:39.248Z,5.59
2023-04-26T00:55:09.324Z,5.48
2023-04-26T00:57:38.242Z,5.57
2023-04-26T01:00:08.294Z,5.69
2023-04-26T01:02:37.861Z,5.70
2023-04-26T01:05:11.094Z,5.64
2023-04-26T01:07:40.082Z,5.75
2023-04-26T01:10:10.543Z,5.62
2023-04-26T01:12:39.901Z,5.73
2023-04-26T01:15:09.726Z,5.63
2023-04-26T01:17:39.424Z,5.85
2023-04-26T01:20:12.220Z,5.88
2023-04-26T01:22:42.775Z,5.77
2023-04-26T01:25:13.794Z,5.66
2023-04-26T01:27:42.999Z,5.71
2023-04-26T01:30:12.681Z,5.69
2023-04-26T01:32:41.657Z,5.66
2023-04-26T01:35:11.180Z,5.67
2023-04-26T01:37:39.691Z,5.62
2023-04-26T01:40:11.527Z,5.76
2023-04-26T01:42:40.535Z,5.68
2023-04-26T01:45:09.829Z,5.78
2023-04-26T01:47:59.391Z,5.78
2023-04-26T01:50:28.312Z,5.77
2023-04-26T01:52:56.761Z,5.61
2023-04-26T01:55:27.155Z,5.67
2023-04-26T01:57:55.753Z,5.81
2023-04-26T02:00:24.750Z,5.69
2023-04-26T02:02:56.726Z,5.58
2023-04-26T02:05:26.035Z,5.40
2023-04-26T02:07:54.615Z,5.43
2023-04-26T02:10:23.495Z,5.13
2023-04-26T02:12:54.152Z,5.08
2023-04-26T02:15:23.091Z,5.26
2023-04-26T02:17:53.790Z,5.14
2023-04-26T02:20:23.062Z,5.03
2023-04-26T02:22:52.122Z,5.04
2023-04-26T02:25:21.454Z,4.92
2023-04-26T02:27:50.249Z,4.85
2023-04-26T02:30:20.599Z,4.69
2023-04-26T02:32:49.670Z,4.89
2023-04-26T02:35:19.652Z,5.31
2023-04-26T02:37:49.238Z,4.96
2023-04-26T02:40:18.165Z,4.84
2023-04-26T02:42:47.202Z,4.92
2023-04-26T02:45:16.339Z,4.73
2023-04-26T02:47:46.709Z,4.81
2023-04-26T02:50:15.274Z,4.88
2023-04-26T02:52:43.734Z,5.02
2023-04-26T02:55:12.616Z,4.89
2023-04-26T02:57:41.739Z,4.70
2023-04-26T03:00:14.164Z,4.59
2023-04-26T03:02:43.484Z,4.05
2023-04-26T03:05:14.088Z,4.42
2023-04-26T03:07:42.889Z,4.42
2023-04-26T03:10:12.426Z,4.40
2023-04-26T03:12:42.525Z,4.24
2023-04-26T03:15:11.832Z,4.24
2023-04-26T03:17:43.400Z,3.80
2023-04-26T03:20:15.164Z,4.07
2023-04-26T03:22:43.682Z,4.07
2023-04-26T03:25:13.330Z,3.89
2023-04-26T03:27:42.262Z,3.91
2023-04-26T03:30:11.983Z,3.80
2023-04-26T03:32:42.419Z,3.65
2023-04-26T03:35:11.662Z,3.82
2023-04-26T03:37:41.654Z,3.74
2023-04-26T03:40:14.177Z,3.75
2023-04-26T03:42:43.053Z,3.68
2023-04-26T03:45:12.491Z,3.50
2023-04-26T03:47:41.406Z,3.66
2023-04-26T03:50:11.284Z,3.69
2023-04-26T03:52:39.699Z,3.66
2023-04-26T03:55:11.995Z,3.60
2023-04-26T03:57:41.482Z,3.60
2023-04-26T04:00:12.244Z,3.55
2023-04-26T04:02:44.344Z,3.53
2023-04-26T04:05:19.136Z,3.67
2023-04-26T04:07:47.745Z,3.39
2023-04-26T04:10:18.065Z,3.39
2023-04-26T04:12:47.565Z,3.10
2023-04-26T04:15:17.457Z,3.33
2023-04-26T04:17:48.672Z,3.34
2023-04-26T04:20:17.708Z,3.34
2023-04-26T04:22:46.346Z,3.47
2023-04-26T04:25:15.292Z,3.35
2023-04-26T04:27:45.640Z,3.26
2023-04-26T04:30:14.882Z,3.12
2023-04-26T04:32:47.020Z,3.30
2023-04-26T04:35:18.201Z,3.49
2023-04-26T04:37:46.969Z,3.16
2023-04-26T04:40:16.086Z,2.96
2023-04-26T04:42:49.338Z,3.25
2023-04-26T04:45:19.985Z,3.19
2023-04-26T04:47:50.554Z,3.35
2023-04-26T04:50:19.662Z,3.29
2023-04-26T04:52:48.937Z,3.17
2023-04-26T04:55:18.177Z,3.26
2023-04-26T04:57:48.561Z,3.57
2023-04-26T05:00:18.710Z,3.16
2023-04-26T05:03:04.714Z,3.55
2023-04-26T05:05:33.697Z,3.38
2023-04-26T05:08:02.965Z,3.34
2023-04-26T05:10:31.447Z,3.21
2023-04-26T05:13:01.915Z,3.56
2023-04-26T05:15:31.206Z,3.33
2023-04-26T05:18:01.281Z,3.55
2023-04-26T05:20:31.385Z,3.48
2023-04-26T05:23:00.479Z,3.38
2023-04-26T05:25:29.108Z,3.46
2023-04-26T05:28:12.923Z,3.75
2023-04-26T05:31:02.054Z,4.03
2023-04-26T05:34:06.204Z,4.10
2023-04-26T05:36:42.387Z,3.96
2023-04-26T05:39:12.482Z,4.09
2023-04-26T05:41:41.595Z,4.19
2023-04-26T05:44:12.134Z,4.10
2023-04-26T05:46:40.632Z,4.30
2023-04-26T05:49:11.360Z,4.57
2023-04-26T05:51:40.275Z,4.92
2023-04-26T05:54:09.089Z,5.33
2023-04-26T05:56:38.172Z,4.70
2023-04-26T05:59:07.140Z,4.70
2023-04-26T06:01:37.345Z,4.34
2023-04-26T06:04:07.274Z,4.85
2023-04-26T06:06:46.936Z,5.29
2023-04-26T06:09:18.369Z,5.14
2023-04-26T06:11:48.952Z,4.60
2023-04-26T06:14:29.513Z,5.25
2023-04-26T06:17:04.680Z,5.68
2023-04-26T06:19:34.080Z,5.96
2023-04-26T06:22:02.999Z,5.73
2023-04-26T06:24:32.062Z,5.79
2023-04-26T06:27:01.445Z,5.92
2023-04-26T06:29:34.188Z,6.26
2023-04-26T06:32:05.181Z,6.23
2023-04-26T06:34:34.979Z,5.79
2023-04-26T06:37:04.294Z,6.04
2023-04-26T06:39:34.155Z,6.39
2023-04-26T06:42:03.401Z,5.92
2023-04-26T06:44:50.829Z,6.41
2023-04-26T06:47:21.293Z,6.38
2023-04-26T06:49:49.764Z,5.71
2023-04-26T06:52:20.539Z,6.04
2023-04-26T06:54:56.882Z,5.78
2023-04-26T06:57:27.193Z,6.04
2023-04-26T06:59:56.105Z,6.83
2023-04-26T07:02:26.577Z,7.11
2023-04-26T07:04:55.531Z,8.20
2023-04-26T07:07:24.534Z,8.31
2023-04-26T07:09:54.224Z,8.16
2023-04-26T07:12:22.973Z,7.34
2023-04-26T07:14:51.854Z,7.40
2023-04-26T07:17:21.670Z,7.48
2023-04-26T07:19:51.706Z,8.16
2023-04-26T07:22:21.744Z,8.89
2023-04-26T07:24:50.635Z,8.36
2023-04-26T07:27:19.497Z,9.17
2023-04-26T07:29:49.060Z,11.22
2023-04-26T07:32:18.153Z,9.62
2023-04-26T07:34:47.148Z,8.70
2023-04-26T07:37:17.598Z,9.57
2023-04-26T07:39:46.483Z,10.75
2023-04-26T07:42:15.554Z,11.06
2023-04-26T07:44:44.586Z,12.05
2023-04-26T07:47:14.648Z,11.55
2023-04-26T07:49:44.382Z,10.70
2023-04-26T07:52:14.735Z,8.95
2023-04-26T07:54:47.068Z,9.43
2023-04-26T07:57:16.579Z,10.06
2023-04-26T07:59:45.533Z,9.84
2023-04-26T08:02:14.601Z,8.41
2023-04-26T08:04:49.785Z,7.78
2023-04-26T08:07:18.840Z,8.09
2023-04-26T08:09:50.309Z,7.69
2023-04-26T08:12:19.637Z,7.38
2023-04-26T08:14:48.663Z,6.89
2023-04-26T08:17:17.795Z,6.86
2023-04-26T08:19:46.625Z,6.48
2023-04-26T08:22:15.697Z,5.89
2023-04-26T08:24:51.309Z,5.85
2023-04-26T08:27:20.477Z,6.05
2023-04-26T08:29:49.757Z,6.15
2023-04-26T08:32:19.014Z,6.48
2023-04-26T08:34:48.869Z,6.28
2023-04-26T08:37:17.856Z,6.76
2023-04-26T08:39:47.005Z,7.40
2023-04-26T08:42:18.736Z,7.69
2023-04-26T08:44:47.902Z,7.25
2023-04-26T08:47:20.038Z,6.88
2023-04-26T08:49:50.445Z,7.18
2023-04-26T08:52:23.471Z,6.81
2023-04-26T08:54:53.564Z,6.81
2023-04-26T08:57:24.220Z,6.83
2023-04-26T08:59:53.481Z,6.98
2023-04-26T09:02:24.295Z,7.84
2023-04-26T09:04:53.283Z,8.66
2023-04-26T09:07:23.341Z,8.37
2023-04-26T09:09:52.396Z,8.87
2023-04-26T09:12:21.645Z,8.50
2023-04-26T09:14:52.127Z,7.56
2023-04-26T09:17:27.002Z,7.03
2023-04-26T09:19:55.992Z,6.89
2023-04-26T09:22:32.525Z,6.88
2023-04-26T09:25:02.244Z,6.23
2023-04-26T09:27:35.143Z,6.30
2023-04-26T09:30:11.122Z,6.87
2023-04-26T09:32:48.421Z,9.74
2023-04-26T09:35:23.493Z,14.50
2023-04-26T09:38:00.194Z,14.13
2023-04-26T09:40:32.020Z,13.82
2023-04-26T09:43:02.850Z,12.90
2023-04-26T09:45:34.297Z,11.11
2023-04-26T09:48:17.388Z,11.81
2023-04-26T09:50:47.344Z,10.66
2023-04-26T09:53:37.413Z,10.62
2023-04-26T09:56:10.421Z,9.11
2023-04-26T09:58:40.288Z,8.45
2023-04-26T10:01:12.350Z,7.57
2023-04-26T10:03:42.935Z,8.49
2023-04-26T10:06:13.708Z,8.43
2023-04-26T10:08:42.751Z,10.95
2023-04-26T10:11:12.741Z,12.35
2023-04-26T10:13:41.836Z,10.73
2023-04-26T10:16:12.367Z,10.19
2023-04-26T10:18:41.435Z,9.27
2023-04-26T10:21:13.749Z,8.67
2023-04-26T10:23:42.953Z,9.40
2023-04-26T10:26:44.830Z,12.13
2023-04-26T10:29:13.554Z,14.43
2023-04-26T10:32:10.202Z,16.75
2023-04-26T10:34:39.625Z,15.12
2023-04-26T10:37:09.760Z,9.78
2023-04-26T10:39:39.250Z,8.21
2023-04-26T10:42:25.637Z,7.48
2023-04-26T10:44:56.086Z,7.32
2023-04-26T10:47:28.895Z,7.42
2023-04-26T10:50:08.957Z,7.22
2023-04-26T10:52:37.932Z,7.51
2023-04-26T10:55:08.120Z,7.93
2023-04-26T10:57:49.580Z,8.12
2023-04-26T11:00:29.164Z,8.79
2023-04-26T11:03:05.894Z,9.69
2023-04-26T11:05:43.747Z,8.29
2023-04-26T11:08:18.438Z,7.71
2023-04-26T11:10:52.407Z,7.07
2023-04-26T11:13:21.987Z,7.12
2023-04-26T11:15:54.782Z,6.75
2023-04-26T11:18:25.699Z,6.44
2023-04-26T11:20:55.211Z,6.43
2023-04-26T11:23:25.054Z,6.89
2023-04-26T11:25:55.139Z,7.15
2023-04-26T11:28:24.656Z,8.05
2023-04-26T11:30:54.170Z,8.80
2023-04-26T11:33:24.720Z,9.09
2023-04-26T11:35:54.402Z,8.44
2023-04-26T11:38:24.655Z,8.00
2023-04-26T11:40:57.707Z,8.08
2023-04-26T11:43:32.585Z,7.67
2023-04-26T11:46:02.006Z,7.74
2023-04-26T11:48:33.604Z,6.92
2023-04-26T11:51:04.875Z,6.38
2023-04-26T11:53:37.760Z,6.72
2023-04-26T11:56:07.874Z,6.44
2023-04-26T11:58:36.399Z,6.60
2023-04-26T12:01:05.439Z,7.26
2023-04-26T12:03:38.085Z,7.23
2023-04-26T12:06:07.669Z,7.41
2023-04-26T12:08:36.922Z,7.66
2023-04-26T12:11:06.032Z,7.93
2023-04-26T12:13:34.510Z,9.03
2023-04-26T12:16:22.373Z,10.78
2023-04-26T12:18:57.131Z,13.29
2023-04-26T12:21:30.311Z,13.50
2023-04-26T12:23:59.766Z,10.31
2023-04-26T12:26:45.001Z,9.71
2023-04-26T12:29:14.211Z,9.10
2023-04-26T12:31:42.816Z,8.15
2023-04-26T12:34:13.238Z,8.21
2023-04-26T12:36:43.325Z,7.90
2023-04-26T12:39:13.800Z,7.60
2023-04-26T12:41:42.809Z,7.47
2023-04-26T12:44:12.840Z,8.25
2023-04-26T12:46:41.725Z,8.39
2023-04-26T12:49:12.302Z,8.02
2023-04-26T12:51:41.432Z,7.25
2023-04-26T12:54:10.223Z,6.97
2023-04-26T12:56:43.849Z,6.75
2023-04-26T12:59:12.979Z,6.76
2023-04-26T13:01:41.637Z,6.71
2023-04-26T13:04:11.034Z,6.59
2023-04-26T13:06:41.808Z,6.75
2023-04-26T13:09:12.988Z,7.09
2023-04-26T13:11:42.165Z,7.35
2023-04-26T13:14:11.336Z,7.96
2023-04-26T13:16:43.895Z,8.42
2023-04-26T13:19:12.881Z,8.27
2023-04-26T13:21:43.318Z,8.74
2023-04-26T13:24:12.197Z,8.99
2023-04-26T13:26:41.103Z,8.65
2023-04-26T13:29:09.981Z,7.91
2023-04-26T13:31:40.044Z,8.35
2023-04-26T13:34:09.862Z,8.55
2023-04-26T13:36:38.713Z,8.08
2023-04-26T13:39:09.158Z,7.96
2023-04-26T13:41:38.262Z,8.16
2023-04-26T13:44:07.175Z,7.82
2023-04-26T13:46:36.434Z,8.16
2023-04-26T13:49:05.609Z,7.58
2023-04-26T13:51:34.948Z,7.51
2023-04-26T13:54:03.892Z,7.52
2023-04-26T13:56:34.793Z,7.93
2023-04-26T13:59:05.489Z,8.43
2023-04-26T14:01:36.065Z,8.28
2023-04-26T14:04:30.130Z,8.06
2023-04-26T14:06:59.662Z,7.72
2023-04-26T14:09:28.587Z,7.50
2023-04-26T14:12:07.884Z,7.21
2023-04-26T14:14:37.863Z,7.06
2023-04-26T14:17:06.745Z,7.28
2023-04-26T14:19:35.205Z,7.24
2023-04-26T14:22:04.181Z,7.31
2023-04-26T14:24:33.080Z,6.48
2023-04-26T14:27:04.129Z,6.74
2023-04-26T14:29:33.105Z,7.01
2023-04-26T14:32:02.057Z,7.15
2023-04-26T14:34:30.635Z,7.19
2023-04-26T14:37:01.703Z,6.90
2023-04-26T14:39:30.638Z,7.66
2023-04-26T14:41:59.706Z,7.92
2023-04-26T14:44:30.072Z,7.68
2023-04-26T14:46:58.540Z,7.59
2023-04-26T14:49:27.351Z,7.54
2023-04-26T14:51:56.276Z,7.37
2023-04-26T14:54:26.502Z,7.56
2023-04-26T14:56:55.423Z,7.15
2023-04-26T14:59:24.473Z,6.75
2023-04-26T15:01:54.663Z,7.00
2023-04-26T15:04:23.970Z,6.95
2023-04-26T15:06:53.100Z,6.60
2023-04-26T15:09:22.530Z,6.70
2023-04-26T15:11:51.372Z,6.81
2023-04-26T15:14:20.561Z,6.73
2023-04-26T15:16:49.200Z,6.43
2023-04-26T15:19:19.526Z,6.31
2023-04-26T15:21:48.433Z,6.31
2023-04-26T15:24:17.334Z,6.34
2023-04-26T15:26:46.504Z,6.52
2023-04-26T15:29:15.435Z,6.03
2023-04-26T15:31:43.987Z,6.31
2023-04-26T15:34:12.971Z,6.32
2023-04-26T15:36:43.209Z,6.61
2023-04-26T15:39:12.266Z,6.37
2023-04-26T15:41:41.162Z,6.38
2023-04-26T15:44:10.049Z,6.68
2023-04-26T15:46:38.753Z,6.79
2023-04-26T15:49:07.769Z,6.83
2023-04-26T15:51:36.734Z,6.84
2023-04-26T15:54:07.914Z,6.83
2023-04-26T15:56:36.808Z,6.72
2023-04-26T15:59:05.753Z,6.79
2023-04-26T16:01:34.549Z,6.42
2023-04-26T16:04:28.933Z,6.82
2023-04-26T16:06:57.940Z,6.85
2023-04-26T16:09:28.234Z,6.83
2023-04-26T16:11:57.125Z,6.68
2023-04-26T16:14:26.383Z,6.68
2023-04-26T16:16:54.878Z,6.51
2023-04-26T16:19:27.076Z,6.43
2023-04-26T16:21:56.460Z,6.47
2023-04-26T16:24:25.608Z,6.57
2023-04-26T16:26:56.035Z,6.56
2023-04-26T16:29:25.119Z,6.24
2023-04-26T16:31:54.149Z,6.08
2023-04-26T16:34:23.202Z,6.30
2023-04-26T16:36:52.047Z,6.50
2023-04-26T16:39:21.657Z,6.80
2023-04-26T16:41:51.108Z,6.56
2023-04-26T16:44:21.450Z,6.60
2023-04-26T16:46:49.969Z,6.61
2023-04-26T16:49:18.866Z,6.61
2023-04-26T16:51:53.474Z,6.37
2023-04-26T16:54:22.512Z,6.47
2023-04-26T16:56:51.533Z,6.58
2023-04-26T16:59:22.847Z,6.19
2023-04-26T17:01:52.166Z,6.42
2023-04-26T17:04:21.319Z,6.25
2023-04-26T17:06:50.438Z,6.32
2023-04-26T17:09:20.021Z,6.48
2023-04-26T17:11:50.086Z,6.52
2023-04-26T17:14:19.062Z,6.57
2023-04-26T17:16:49.339Z,6.76
2023-04-26T17:19:18.466Z,6.68
2023-04-26T17:21:47.628Z,6.92
2023-04-26T17:24:17.644Z,7.54
2023-04-26T17:26:47.205Z,7.70
2023-04-26T17:29:16.363Z,7.18
2023-04-26T17:31:45.176Z,6.80
2023-04-26T17:34:16.111Z,6.35
2023-04-26T17:36:46.183Z,6.28
2023-04-26T17:39:15.033Z,6.33
2023-04-26T17:41:43.963Z,6.36
2023-04-26T17:44:12.906Z,6.37
2023-04-26T17:46:41.618Z,6.25
2023-04-26T17:49:11.890Z,6.15
2023-04-26T17:51:42.177Z,6.30
2023-04-26T17:54:10.818Z,6.00
2023-04-26T17:56:39.641Z,5.97
2023-04-26T17:59:08.570Z,5.95
2023-04-26T18:01:37.416Z,6.15
2023-04-26T18:04:06.706Z,6.05
2023-04-26T18:06:36.894Z,6.07
2023-04-26T18:09:08.715Z,6.14
2023-04-26T18:11:37.695Z,6.13
2023-04-26T18:14:06.603Z,6.17
2023-04-26T18:16:35.203Z,6.07
2023-04-26T18:19:04.173Z,6.06
2023-04-26T18:21:33.164Z,6.00
2023-04-26T18:24:02.093Z,5.83
2023-04-26T18:26:32.408Z,5.77
2023-04-26T18:29:01.254Z,5.69
2023-04-26T18:31:32.459Z,5.74
2023-04-26T18:34:02.088Z,5.67
2023-04-26T18:36:32.250Z,5.46
2023-04-26T18:39:01.323Z,5.59
2023-04-26T18:41:31.751Z,5.64
2023-04-26T18:44:00.402Z,5.62
2023-04-26T18:46:28.945Z,5.64
2023-04-26T18:48:57.817Z,5.55
2023-04-26T18:51:26.804Z,5.31
2023-04-26T18:53:55.618Z,5.23
2023-04-26T18:56:24.462Z,5.11
2023-04-26T18:58:54.382Z,5.03
2023-04-26T19:01:23.002Z,5.05
2023-04-26T19:03:52.154Z,4.79
2023-04-26T19:06:21.669Z,4.95
2023-04-26T19:08:51.610Z,4.85
2023-04-26T19:11:20.559Z,5.01
2023-04-26T19:13:48.989Z,5.03
2023-04-26T19:16:19.293Z,4.98
2023-04-26T19:18:49.203Z,4.99
2023-04-26T19:21:18.065Z,5.00
2023-04-26T19:23:46.889Z,4.78
2023-04-26T19:26:16.472Z,4.85
2023-04-26T19:28:45.004Z,4.85
2023-04-26T19:31:14.331Z,4.69
2023-04-26T19:33:46.104Z,4.72
2023-04-26T19:36:15.203Z,4.77
2023-04-26T19:38:44.050Z,4.68
2023-04-26T19:41:13.319Z,4.77
2023-04-26T19:43:41.876Z,4.73
2023-04-26T19:46:13.849Z,4.68
2023-04-26T19:48:44.441Z,4.78
2023-04-26T19:51:17.296Z,4.51
2023-04-26T19:53:46.304Z,4.43
2023-04-26T19:56:15.173Z,4.27
2023-04-26T19:58:43.687Z,4.13
2023-04-26T20:01:12.568Z,4.18
2023-04-26T20:03:41.977Z,4.13
2023-04-26T20:06:14.089Z,4.13
2023-04-26T20:08:43.653Z,3.82
2023-04-26T20:11:15.287Z,4.03
2023-04-26T20:13:44.255Z,3.80
2023-04-26T20:16:14.449Z,3.76
2023-04-26T20:18:43.456Z,3.67
2023-04-26T20:21:13.779Z,3.58
2023-04-26T20:23:42.923Z,3.57
2023-04-26T20:26:12.194Z,3.74
2023-04-26T20:28:40.727Z,3.47
2023-04-26T20:31:09.606Z,3.50
2023-04-26T20:33:38.552Z,3.45
2023-04-26T20:36:08.366Z,3.47
2023-04-26T20:38:39.035Z,3.49
2023-04-26T20:41:08.090Z,3.42
2023-04-26T20:43:36.606Z,3.42
2023-04-26T20:46:05.590Z,3.29
2023-04-26T20:48:34.599Z,3.27
2023-04-26T20:51:03.505Z,3.25
2023-04-26T20:53:32.348Z,3.29
2023-04-26T20:56:02.651Z,3.19
2023-04-26T20:58:31.305Z,3.24
2023-04-26T21:01:00.584Z,3.17
2023-04-26T21:03:29.676Z,3.14
2023-04-26T21:05:58.729Z,3.09
2023-04-26T21:08:27.673Z,3.12
2023-04-26T21:10:56.197Z,2.93
2023-04-26T21:13:26.848Z,3.03
2023-04-26T21:15:55.912Z,3.03
2023-04-26T21:18:24.904Z,2.96
2023-04-26T21:20:53.862Z,2.94
2023-04-26T21:23:22.804Z,2.91
2023-04-26T21:25:51.422Z,2.84
2023-04-26T21:28:20.306Z,2.80
2023-04-26T21:30:50.567Z,2.77
2023-04-26T21:33:19.641Z,2.78
2023-04-26T21:35:48.577Z,2.77
2023-04-26T21:38:17.670Z,2.63
2023-04-26T21:40:46.253Z,2.80
2023-04-26T21:43:16.140Z,2.68
2023-04-26T21:45:45.134Z,2.70
2023-04-26T21:48:15.753Z,2.77
2023-04-26T21:50:44.939Z,2.79
2023-04-26T21:53:14.110Z,2.77
2023-04-26T21:55:42.836Z,2.77
2023-04-26T21:58:11.695Z,2.72
2023-04-26T22:00:40.674Z,2.76
2023-04-26T22:03:09.832Z,2.72
2023-04-26T22:05:40.673Z,2.73
2023-04-26T22:08:09.328Z,2.67
2023-04-26T22:10:37.514Z,2.62
2023-04-26T22:13:06.369Z,2.80
2023-04-26T22:15:34.991Z,2.71
2023-04-26T22:18:03.624Z,2.60
2023-04-26T22:20:32.197Z,2.46
2023-04-26T22:23:02.074Z,2.49
2023-04-26T22:25:30.201Z,2.45
2023-04-26T22:27:58.828Z,2.31
2023-04-26T22:30:27.333Z,2.37
2023-04-26T22:32:57.506Z,2.33
2023-04-26T22:35:26.349Z,2.39
2023-04-26T22:37:54.543Z,2.26
2023-04-26T22:40:24.468Z,2.45
2023-04-26T22:42:54.079Z,2.18
2023-04-26T22:45:22.946Z,2.24
2023-04-26T22:47:51.659Z,2.21
2023-04-26T22:50:20.273Z,2.20
2023-04-26T22:52:49.750Z,2.17
2023-04-26T22:55:18.459Z,2.04
2023-04-26T22:57:48.453Z,1.98
2023-04-26T23:00:17.518Z,2.01
2023-04-26T23:02:46.357Z,1.89
2023-04-26T23:05:14.967Z,1.81
2023-04-26T23:07:43.146Z,1.93
2023-04-26T23:10:12.287Z,1.89
2023-04-26T23:12:41.870Z,1.82
2023-04-26T23:15:12.698Z,1.93
2023-04-26T23:17:41.975Z,1.85
2023-04-26T23:20:14.510Z,1.84
2023-04-26T23:22:43.792Z,1.82
2023-04-26T23:25:12.286Z,1.83
2023-04-26T23:27:41.033Z,1.77
2023-04-26T23:30:13.948Z,1.79
2023-04-26T23:32:42.795Z,1.72
2023-04-26T23:35:11.449Z,1.71
2023-04-26T23:37:39.805Z,1.72
2023-04-26T23:40:10.334Z,1.61
2023-04-26T23:42:38.898Z,1.51
2023-04-26T23:45:09.207Z,1.61
2023-04-26T23:47:39.047Z,1.60
2023-04-26T23:50:08.951Z,1.49
2023-04-26T23:52:37.079Z,1.52
2023-04-26T23:55:06.809Z,1.58
2023-04-26T23:57:35.681Z,1.50
